createdAt,value
2022-11-27T00:00:50.583Z,5.20
2022-11-27T00:03:18.524Z,5.20
2022-11-27T00:05:55.559Z,5.20
2022-11-27T00:08:23.798Z,5.40
2022-11-27T00:10:53.412Z,5.30
2022-11-27T00:13:21.247Z,5.10
2022-11-27T00:15:49.102Z,5.10
2022-11-27T00:18:17.273Z,5.10
2022-11-27T00:20:45.103Z,5.00
2022-11-27T00:23:12.929Z,5.00
2022-11-27T00:25:40.804Z,5.00
2022-11-27T00:28:09.979Z,5.20
2022-11-27T00:30:37.892Z,4.90
2022-11-27T00:33:05.815Z,5.00
2022-11-27T00:35:33.663Z,6.30
2022-11-27T00:38:01.505Z,4.90
2022-11-27T00:40:29.350Z,5.30
2022-11-27T00:42:57.192Z,4.90
2022-11-27T00:45:26.424Z,5.10
2022-11-27T00:47:54.302Z,4.90
2022-11-27T00:50:22.137Z,4.90
2022-11-27T00:52:50.032Z,4.90
2022-11-27T00:55:17.980Z,5.10
2022-11-27T00:57:45.808Z,4.50
2022-11-27T01:00:15.046Z,4.90
2022-11-27T01:02:44.578Z,4.80
2022-11-27T01:05:12.665Z,5.40
2022-11-27T01:07:40.571Z,4.80
2022-11-27T01:10:09.763Z,4.80
2022-11-27T01:12:37.605Z,4.70
2022-11-27T01:15:06.128Z,4.70
2022-11-27T01:17:33.952Z,4.70
2022-11-27T01:20:03.132Z,4.70
2022-11-27T01:22:31.012Z,4.70
2022-11-27T01:24:58.835Z,4.70
2022-11-27T01:27:26.725Z,4.70
2022-11-27T01:29:54.544Z,4.80
2022-11-27T01:32:22.502Z,4.70
2022-11-27T01:34:50.323Z,4.70
2022-11-27T01:37:19.748Z,4.70
2022-11-27T01:39:47.585Z,4.60
2022-11-27T01:42:15.455Z,4.50
2022-11-27T01:44:52.582Z,4.60
2022-11-27T01:47:39.073Z,4.60
2022-11-27T01:50:16.376Z,4.60
2022-11-27T01:52:50.059Z,4.60
2022-11-27T01:55:24.540Z,4.50
2022-11-27T01:57:56.034Z,4.30
2022-11-27T02:00:24.784Z,4.50
2022-11-27T02:02:52.702Z,4.20
2022-11-27T02:05:22.879Z,4.80
2022-11-27T02:07:53.113Z,4.40
2022-11-27T02:10:21.486Z,4.40
2022-11-27T02:12:57.186Z,5.10
2022-11-27T02:15:32.435Z,4.50
2022-11-27T02:18:10.142Z,4.50
2022-11-27T02:20:46.575Z,4.40
2022-11-27T02:23:42.538Z,4.30
2022-11-27T02:26:29.870Z,4.40
2022-11-27T02:29:05.433Z,4.20
2022-11-27T02:31:41.370Z,4.30
2022-11-27T02:34:19.118Z,4.30
2022-11-27T02:36:54.074Z,4.30
2022-11-27T02:39:26.639Z,4.30
2022-11-27T02:42:00.318Z,4.30
2022-11-27T02:44:33.368Z,4.30
2022-11-27T02:47:02.151Z,4.20
2022-11-27T02:49:30.437Z,4.20
2022-11-27T02:52:02.313Z,4.20
2022-11-27T02:54:31.843Z,4.20
2022-11-27T02:57:04.408Z,4.20
2022-11-27T02:59:35.818Z,4.20
2022-11-27T03:02:08.034Z,4.20
2022-11-27T03:04:37.390Z,4.10
2022-11-27T03:07:10.039Z,4.10
2022-11-27T03:09:41.144Z,4.20
2022-11-27T03:12:10.740Z,4.20
2022-11-27T03:14:42.759Z,4.10
2022-11-27T03:17:22.371Z,4.10
2022-11-27T03:19:56.602Z,4.10
2022-11-27T03:22:26.715Z,4.10
2022-11-27T03:24:54.831Z,4.10
2022-11-27T03:27:28.863Z,4.10
2022-11-27T03:30:00.652Z,4.10
2022-11-27T03:32:30.135Z,4.10
2022-11-27T03:34:58.444Z,4.20
2022-11-27T03:37:26.507Z,4.10
2022-11-27T03:39:54.580Z,4.20
2022-11-27T03:42:29.026Z,4.00
2022-11-27T03:45:08.983Z,4.20
2022-11-27T03:47:46.169Z,4.10
2022-11-27T03:50:22.844Z,4.10
2022-11-27T03:53:01.073Z,4.10
2022-11-27T03:55:35.525Z,4.20
2022-11-27T03:58:07.100Z,4.10
2022-11-27T04:00:40.371Z,4.10
2022-11-27T04:03:11.052Z,4.10
2022-11-27T04:05:39.376Z,4.00
2022-11-27T04:08:07.559Z,4.00
2022-11-27T04:10:35.378Z,4.00
2022-11-27T04:13:03.158Z,4.00
2022-11-27T04:15:30.975Z,4.00
2022-11-27T04:18:00.136Z,3.90
2022-11-27T04:20:29.024Z,3.90
2022-11-27T04:22:56.863Z,3.90
2022-11-27T04:25:24.977Z,3.90
2022-11-27T04:27:53.070Z,3.80
2022-11-27T04:30:21.581Z,3.90
2022-11-27T04:32:49.500Z,3.80
2022-11-27T04:35:18.912Z,3.90
2022-11-27T04:37:46.712Z,3.70
2022-11-27T04:40:15.123Z,3.80
2022-11-27T04:42:42.936Z,3.80
2022-11-27T04:45:11.746Z,4.00
2022-11-27T04:47:39.616Z,3.80
2022-11-27T04:50:08.934Z,3.80
2022-11-27T04:52:38.228Z,3.80
2022-11-27T04:55:06.789Z,3.80
2022-11-27T04:57:34.699Z,3.70
2022-11-27T05:00:04.100Z,3.70
2022-11-27T05:02:32.016Z,3.70
2022-11-27T05:04:59.859Z,3.70
2022-11-27T05:07:27.704Z,3.70
2022-11-27T05:09:56.971Z,3.80
2022-11-27T05:12:24.798Z,3.80
2022-11-27T05:14:52.629Z,3.80
2022-11-27T05:17:20.451Z,3.80
2022-11-27T05:19:48.298Z,3.80
2022-11-27T05:22:16.147Z,3.80
2022-11-27T05:24:43.965Z,3.80
2022-11-27T05:27:13.121Z,3.80
2022-11-27T05:29:40.959Z,3.80
2022-11-27T05:32:08.812Z,3.80
2022-11-27T05:34:36.629Z,3.80
2022-11-27T05:37:04.465Z,3.70
2022-11-27T05:39:32.254Z,3.70
2022-11-27T05:42:00.096Z,3.70
2022-11-27T05:44:29.379Z,3.70
2022-11-27T05:46:57.857Z,3.70
2022-11-27T05:49:25.681Z,3.70
2022-11-27T05:51:53.511Z,3.70
2022-11-27T05:54:21.323Z,3.70
2022-11-27T05:56:49.158Z,3.80
2022-11-27T05:59:17.120Z,3.70
2022-11-27T06:01:46.294Z,3.60
2022-11-27T06:04:14.451Z,3.60
2022-11-27T06:06:42.280Z,3.60
2022-11-27T06:09:13.095Z,3.60
2022-11-27T06:11:42.377Z,3.60
2022-11-27T06:14:10.335Z,3.50
2022-11-27T06:16:38.449Z,3.50
2022-11-27T06:19:08.772Z,3.50
2022-11-27T06:21:36.574Z,3.50
2022-11-27T06:24:04.620Z,3.50
2022-11-27T06:26:33.553Z,3.40
2022-11-27T06:29:02.358Z,3.40
2022-11-27T06:31:32.752Z,3.40
2022-11-27T06:34:01.194Z,3.40
2022-11-27T06:36:32.369Z,3.20
2022-11-27T06:39:00.237Z,3.40
2022-11-27T06:41:29.487Z,3.30
2022-11-27T06:43:59.880Z,3.30
2022-11-27T06:46:28.150Z,3.30
2022-11-27T06:48:56.849Z,3.30
2022-11-27T06:51:26.672Z,3.30
2022-11-27T06:53:56.283Z,3.30
2022-11-27T06:56:26.503Z,3.30
2022-11-27T06:58:55.318Z,3.30
2022-11-27T07:01:24.540Z,3.30
2022-11-27T07:03:52.451Z,3.30
2022-11-27T07:06:23.168Z,3.30
2022-11-27T07:08:51.136Z,3.20
2022-11-27T07:11:21.792Z,3.30
2022-11-27T07:13:51.300Z,3.30
2022-11-27T07:16:19.834Z,3.30
2022-11-27T07:18:49.418Z,3.30
2022-11-27T07:21:17.702Z,3.30
2022-11-27T07:23:46.163Z,3.30
2022-11-27T07:26:15.753Z,3.20
2022-11-27T07:28:45.830Z,3.20
2022-11-27T07:31:15.227Z,3.20
2022-11-27T07:33:43.075Z,3.30
2022-11-27T07:36:14.539Z,3.30
2022-11-27T07:38:42.691Z,3.30
2022-11-27T07:41:10.873Z,3.30
2022-11-27T07:43:39.048Z,3.30
2022-11-27T07:46:09.990Z,3.30
2022-11-27T07:48:38.024Z,3.30
2022-11-27T07:51:07.270Z,3.30
2022-11-27T07:53:37.282Z,3.30
2022-11-27T07:56:05.542Z,3.30
2022-11-27T07:58:33.585Z,3.30
2022-11-27T08:01:01.545Z,3.30
2022-11-27T08:03:30.819Z,3.30
2022-11-27T08:05:58.647Z,3.60
2022-11-27T08:08:26.469Z,3.30
2022-11-27T08:10:54.287Z,3.30
2022-11-27T08:13:22.114Z,3.30
2022-11-27T08:15:49.983Z,3.30
2022-11-27T08:18:17.813Z,3.40
2022-11-27T08:20:46.998Z,3.40
2022-11-27T08:23:14.827Z,3.40
2022-11-27T08:25:42.648Z,3.50
2022-11-27T08:28:10.540Z,3.50
2022-11-27T08:30:38.378Z,3.50
2022-11-27T08:33:06.213Z,3.50
2022-11-27T08:35:34.302Z,3.50
2022-11-27T08:38:03.618Z,3.50
2022-11-27T08:40:31.535Z,3.60
2022-11-27T08:42:59.659Z,3.60
2022-11-27T08:45:27.513Z,3.70
2022-11-27T08:47:55.351Z,3.70
2022-11-27T08:50:23.157Z,3.80
2022-11-27T08:52:51.003Z,3.80
2022-11-27T08:55:20.170Z,3.80
2022-11-27T08:57:47.972Z,3.80
2022-11-27T09:00:16.706Z,3.90
2022-11-27T09:02:44.503Z,3.80
2022-11-27T09:05:12.520Z,3.80
2022-11-27T09:07:40.894Z,3.80
2022-11-27T09:10:09.695Z,3.90
2022-11-27T09:12:43.199Z,3.80
2022-11-27T09:15:12.204Z,3.80
2022-11-27T09:17:40.175Z,3.80
2022-11-27T09:20:09.368Z,3.80
2022-11-27T09:22:37.590Z,3.90
2022-11-27T09:25:05.825Z,3.90
2022-11-27T09:27:33.610Z,3.90
2022-11-27T09:30:02.764Z,4.00
2022-11-27T09:32:30.525Z,4.00
2022-11-27T09:34:58.450Z,4.00
2022-11-27T09:37:26.306Z,4.00
2022-11-27T09:39:55.116Z,4.10
2022-11-27T09:42:38.086Z,4.10
2022-11-27T09:45:12.161Z,4.10
2022-11-27T09:47:43.898Z,4.10
2022-11-27T09:50:15.535Z,4.20
2022-11-27T09:52:47.237Z,4.20
2022-11-27T09:55:19.134Z,4.20
2022-11-27T09:57:54.467Z,4.30
2022-11-27T10:00:24.281Z,4.30
2022-11-27T10:02:52.633Z,4.40
2022-11-27T10:05:23.098Z,4.80
2022-11-27T10:08:26.208Z,4.40
2022-11-27T10:11:01.503Z,4.50
2022-11-27T10:13:46.047Z,4.50
2022-11-27T10:16:22.291Z,4.50
2022-11-27T10:18:54.763Z,4.50
2022-11-27T10:21:43.255Z,4.50
2022-11-27T10:24:19.752Z,4.40
2022-11-27T10:26:49.255Z,4.40
2022-11-27T10:29:31.608Z,4.40
2022-11-27T10:32:05.910Z,4.40
2022-11-27T10:34:41.400Z,4.40
2022-11-27T10:37:16.682Z,4.40
2022-11-27T10:39:49.370Z,4.40
2022-11-27T10:42:23.632Z,4.40
2022-11-27T10:44:56.161Z,4.40
2022-11-27T10:47:32.268Z,4.50
2022-11-27T10:50:01.452Z,4.50
2022-11-27T10:52:29.338Z,4.50
2022-11-27T10:55:00.343Z,4.50
2022-11-27T10:57:41.165Z,4.50
2022-11-27T11:00:15.132Z,4.50
2022-11-27T11:02:44.357Z,4.50
2022-11-27T11:05:37.228Z,4.50
2022-11-27T11:08:05.626Z,4.50
2022-11-27T11:10:39.189Z,4.60
2022-11-27T11:13:15.749Z,4.60
2022-11-27T11:15:51.955Z,4.60
2022-11-27T11:18:22.430Z,4.60
2022-11-27T11:20:52.863Z,4.70
2022-11-27T11:23:24.493Z,4.60
2022-11-27T11:25:55.579Z,4.60
2022-11-27T11:28:24.949Z,4.70
2022-11-27T11:31:00.696Z,4.70
2022-11-27T11:33:30.440Z,4.70
2022-11-27T11:36:07.796Z,4.70
2022-11-27T11:38:35.896Z,4.70
2022-11-27T11:41:06.224Z,4.70
2022-11-27T11:43:36.377Z,4.60
2022-11-27T11:46:08.555Z,4.70
2022-11-27T11:48:38.672Z,4.70
2022-11-27T11:51:13.692Z,4.70
2022-11-27T11:53:42.863Z,4.70
2022-11-27T11:56:27.592Z,4.70
2022-11-27T11:58:59.696Z,4.70
2022-11-27T12:01:44.545Z,4.70
2022-11-27T12:04:27.325Z,4.70
2022-11-27T12:07:04.381Z,4.70
2022-11-27T12:09:45.097Z,4.70
2022-11-27T12:12:26.894Z,4.70
2022-11-27T12:15:01.747Z,4.70
2022-11-27T12:17:41.552Z,4.70
2022-11-27T12:20:18.233Z,4.70
2022-11-27T12:23:34.179Z,4.70
2022-11-27T12:26:10.051Z,4.70
2022-11-27T12:29:09.255Z,4.70
2022-11-27T12:31:52.077Z,4.70
2022-11-27T12:34:31.011Z,4.70
2022-11-27T12:37:14.763Z,4.70
2022-11-27T12:39:57.947Z,4.70
2022-11-27T12:42:31.477Z,4.70
2022-11-27T12:45:04.812Z,4.70
2022-11-27T12:47:40.432Z,4.70
2022-11-27T12:50:15.293Z,4.60
2022-11-27T12:52:47.030Z,4.70
2022-11-27T12:55:19.541Z,4.70
2022-11-27T12:57:50.370Z,4.70
2022-11-27T13:00:20.132Z,4.70
2022-11-27T13:03:01.522Z,4.60
2022-11-27T13:05:33.867Z,4.60
2022-11-27T13:08:05.397Z,4.60
2022-11-27T13:10:37.314Z,4.50
2022-11-27T13:13:09.586Z,4.60
2022-11-27T13:15:40.823Z,4.60
2022-11-27T13:18:18.123Z,4.60
2022-11-27T13:20:52.309Z,4.60
2022-11-27T13:23:22.462Z,4.60
2022-11-27T13:25:54.351Z,4.60
2022-11-27T13:28:27.428Z,4.60
2022-11-27T13:30:58.435Z,4.60
2022-11-27T13:33:37.928Z,4.60
2022-11-27T13:36:08.957Z,4.60
2022-11-27T13:38:41.881Z,4.70
2022-11-27T13:41:20.428Z,4.60
2022-11-27T13:43:50.287Z,4.60
2022-11-27T13:46:24.602Z,4.70
2022-11-27T13:48:55.999Z,4.60
2022-11-27T13:51:27.240Z,4.70
2022-11-27T13:54:08.517Z,4.70
2022-11-27T13:56:36.523Z,4.60
2022-11-27T13:59:15.463Z,4.70
2022-11-27T14:01:57.965Z,4.70
2022-11-27T14:04:26.023Z,4.70
2022-11-27T14:06:56.997Z,4.70
2022-11-27T14:09:36.925Z,4.70
2022-11-27T14:12:19.965Z,4.70
2022-11-27T14:15:01.354Z,4.70
2022-11-27T14:17:36.157Z,4.70
2022-11-27T14:20:09.631Z,4.70
2022-11-27T14:23:10.091Z,4.70
2022-11-27T14:25:36.388Z,4.70
2022-11-27T14:28:12.711Z,4.70
2022-11-27T14:30:42.898Z,4.70
2022-11-27T14:33:19.104Z,4.70
2022-11-27T14:35:50.534Z,4.70
2022-11-27T14:38:18.512Z,4.70
2022-11-27T14:40:48.053Z,4.70
2022-11-27T14:43:23.741Z,4.70
2022-11-27T14:45:53.935Z,4.60
2022-11-27T14:48:24.141Z,4.70
2022-11-27T14:50:53.923Z,4.90
2022-11-27T14:53:24.645Z,4.60
2022-11-27T14:55:57.288Z,4.70
2022-11-27T14:58:27.823Z,4.60
2022-11-27T15:00:58.902Z,4.60
2022-11-27T15:03:27.628Z,4.60
2022-11-27T15:05:59.169Z,4.60
2022-11-27T15:08:28.036Z,4.60
2022-11-27T15:10:58.566Z,4.60
2022-11-27T15:13:28.711Z,4.60
2022-11-27T15:16:04.773Z,4.60
2022-11-27T15:18:35.939Z,4.70
2022-11-27T15:21:09.600Z,4.60
2022-11-27T15:23:38.335Z,4.60
2022-11-27T15:26:16.030Z,4.60
2022-11-27T15:28:52.961Z,4.60
2022-11-27T15:31:27.189Z,4.60
2022-11-27T15:34:01.033Z,4.60
2022-11-27T15:36:38.047Z,4.60
2022-11-27T15:39:19.633Z,4.60
2022-11-27T15:41:57.287Z,4.60
2022-11-27T15:44:26.524Z,4.60
2022-11-27T15:46:56.363Z,4.60
2022-11-27T15:49:24.220Z,4.60
2022-11-27T15:51:52.270Z,4.60
2022-11-27T15:54:20.391Z,4.60
2022-11-27T15:56:48.247Z,4.50
2022-11-27T15:59:20.392Z,4.50
2022-11-27T16:01:49.281Z,4.50
2022-11-27T16:04:17.450Z,4.50
2022-11-27T16:06:45.254Z,4.60
2022-11-27T16:09:13.331Z,4.60
2022-11-27T16:11:41.203Z,4.60
2022-11-27T16:14:09.010Z,4.60
2022-11-27T16:16:38.351Z,4.60
2022-11-27T16:19:06.454Z,4.60
2022-11-27T16:21:36.774Z,4.50
2022-11-27T16:24:06.736Z,4.50
2022-11-27T16:26:35.918Z,4.60
2022-11-27T16:29:03.801Z,4.50
2022-11-27T16:31:31.655Z,4.50
2022-11-27T16:34:01.881Z,4.50
2022-11-27T16:36:29.894Z,4.50
2022-11-27T16:38:57.749Z,4.50
2022-11-27T16:41:26.379Z,4.50
2022-11-27T16:43:56.546Z,4.50
2022-11-27T16:46:26.963Z,4.50
2022-11-27T16:48:56.682Z,4.50
2022-11-27T16:51:28.334Z,4.50
2022-11-27T16:53:58.021Z,4.50
2022-11-27T16:56:27.731Z,4.50
2022-11-27T16:59:02.349Z,4.50
2022-11-27T17:01:34.274Z,4.50
2022-11-27T17:04:03.551Z,4.50
2022-11-27T17:06:34.115Z,4.50
2022-11-27T17:09:03.511Z,4.50
2022-11-27T17:11:33.833Z,4.40
2022-11-27T17:14:03.636Z,4.40
2022-11-27T17:16:31.617Z,4.50
2022-11-27T17:18:59.439Z,4.50
2022-11-27T17:21:29.158Z,4.40
2022-11-27T17:24:00.136Z,4.50
2022-11-27T17:26:30.019Z,4.40
2022-11-27T17:28:59.427Z,4.40
2022-11-27T17:31:32.502Z,4.40
2022-11-27T17:34:00.643Z,4.40
2022-11-27T17:36:35.198Z,4.40
2022-11-27T17:39:06.966Z,4.40
2022-11-27T17:41:35.296Z,4.50
2022-11-27T17:44:05.486Z,4.50
2022-11-27T17:46:34.575Z,4.40
2022-11-27T17:49:03.836Z,4.50
2022-11-27T17:51:33.685Z,4.50
2022-11-27T17:54:02.867Z,4.50
2022-11-27T17:56:32.421Z,4.50
2022-11-27T17:59:00.708Z,4.40
2022-11-27T18:01:29.956Z,4.50
2022-11-27T18:04:01.206Z,4.40
2022-11-27T18:06:29.344Z,4.50
2022-11-27T18:08:58.084Z,4.50
2022-11-27T18:11:28.701Z,4.40
2022-11-27T18:13:58.433Z,4.40
2022-11-27T18:16:29.255Z,4.40
2022-11-27T18:18:57.562Z,4.40
2022-11-27T18:21:27.061Z,4.40
2022-11-27T18:29:33.146Z,4.40
2022-11-27T18:32:01.080Z,4.40
2022-11-27T18:34:28.975Z,4.40
2022-11-27T18:36:59.372Z,4.40
2022-11-27T18:39:27.593Z,4.50
2022-11-27T18:41:55.479Z,4.40
2022-11-27T18:44:23.287Z,4.40
2022-11-27T18:46:52.487Z,4.40
2022-11-27T18:49:22.712Z,4.40
2022-11-27T18:51:51.122Z,4.40
2022-11-27T18:54:18.955Z,4.40
2022-11-27T18:56:46.797Z,4.40
2022-11-27T18:59:14.909Z,4.40
2022-11-27T19:01:43.014Z,4.40
2022-11-27T19:04:12.572Z,4.40
2022-11-27T19:06:42.043Z,4.40
2022-11-27T19:09:10.923Z,4.40
2022-11-27T19:11:38.836Z,4.40
2022-11-27T19:14:07.464Z,4.40
2022-11-27T19:16:41.895Z,4.40
2022-11-27T19:19:30.025Z,4.50
2022-11-27T19:21:59.180Z,4.50
2022-11-27T19:24:27.003Z,4.40
2022-11-27T19:26:54.924Z,4.40
2022-11-27T19:29:22.779Z,4.80
2022-11-27T19:31:51.122Z,4.40
2022-11-27T19:34:19.257Z,4.40
2022-11-27T19:36:47.173Z,4.40
2022-11-27T19:39:16.516Z,4.40
2022-11-27T19:41:44.668Z,4.40
2022-11-27T19:44:14.032Z,4.40
2022-11-27T19:46:42.195Z,4.40
2022-11-27T19:49:14.181Z,4.40
2022-11-27T19:51:42.435Z,4.40
2022-11-27T19:54:13.018Z,4.40
2022-11-27T19:56:42.794Z,4.30
2022-11-27T19:59:12.133Z,4.40
2022-11-27T20:01:40.316Z,4.40
2022-11-27T20:04:10.251Z,4.30
2022-11-27T20:06:38.077Z,4.30
2022-11-27T20:09:06.939Z,4.40
2022-11-27T20:11:36.304Z,4.30
2022-11-27T20:14:06.107Z,4.30
2022-11-27T20:16:35.073Z,4.30
2022-11-27T20:19:05.273Z,4.70
2022-11-27T20:21:33.290Z,4.30
2022-11-27T20:24:02.548Z,4.30
2022-11-27T20:26:30.912Z,4.40
2022-11-27T20:28:59.396Z,4.40
2022-11-27T20:31:30.911Z,4.30
2022-11-27T20:34:01.565Z,4.40
2022-11-27T20:36:30.362Z,4.40
2022-11-27T20:38:59.540Z,4.40
2022-11-27T20:41:27.912Z,4.40
2022-11-27T20:43:57.274Z,4.40
2022-11-27T20:46:25.425Z,4.40
2022-11-27T20:48:55.340Z,4.40
2022-11-27T20:51:27.434Z,4.40
2022-11-27T20:53:57.321Z,4.40
2022-11-27T20:56:26.586Z,4.40
2022-11-27T20:58:54.731Z,4.30
2022-11-27T21:01:24.641Z,4.40
2022-11-27T21:03:55.022Z,4.40
2022-11-27T21:06:25.262Z,4.40
2022-11-27T21:08:53.296Z,4.40
2022-11-27T21:11:24.983Z,4.30
2022-11-27T21:13:55.843Z,4.50
2022-11-27T21:16:24.690Z,4.50
2022-11-27T21:18:54.916Z,4.50
2022-11-27T21:21:23.023Z,4.50
2022-11-27T21:23:51.007Z,4.50
2022-11-27T21:26:19.557Z,4.50
2022-11-27T21:28:48.215Z,4.50
2022-11-27T21:31:18.560Z,4.50
2022-11-27T21:33:47.817Z,4.50
2022-11-27T21:36:17.414Z,4.50
2022-11-27T21:38:45.429Z,4.50
2022-11-27T21:41:13.971Z,4.50
2022-11-27T21:43:42.192Z,4.50
2022-11-27T21:46:12.686Z,4.50
2022-11-27T21:48:40.832Z,4.50
2022-11-27T21:51:12.535Z,4.50
2022-11-27T21:53:42.654Z,4.50
2022-11-27T21:56:12.519Z,4.50
2022-11-27T21:58:40.534Z,4.50
2022-11-27T22:01:12.552Z,4.50
2022-11-27T22:03:42.773Z,4.50
2022-11-27T22:06:13.500Z,4.50
2022-11-27T22:08:43.957Z,4.50
2022-11-27T22:11:13.366Z,4.50
2022-11-27T22:13:42.092Z,4.50
2022-11-27T22:16:11.254Z,4.50
2022-11-27T22:18:39.164Z,4.50
2022-11-27T22:21:08.619Z,4.50
2022-11-27T22:23:36.600Z,4.60
2022-11-27T22:26:08.056Z,4.50
2022-11-27T22:28:36.604Z,4.50
2022-11-27T22:31:09.083Z,4.50
2022-11-27T22:33:37.355Z,4.50
2022-11-27T22:36:16.620Z,4.50
2022-11-27T22:38:44.956Z,4.50
2022-11-27T22:41:15.565Z,4.50
2022-11-27T22:43:44.582Z,4.50
2022-11-27T22:46:15.493Z,4.50
2022-11-27T22:48:43.652Z,4.60
2022-11-27T22:51:11.648Z,4.50
2022-11-27T22:53:39.694Z,4.50
2022-11-27T22:56:09.612Z,4.50
2022-11-27T22:58:41.668Z,4.50
2022-11-27T23:01:15.141Z,4.50
2022-11-27T23:03:43.306Z,4.50
2022-11-27T23:06:12.792Z,4.50
2022-11-27T23:08:40.954Z,4.50
2022-11-27T23:11:09.184Z,4.50
2022-11-27T23:13:38.358Z,4.50
2022-11-27T23:16:08.072Z,4.50
2022-11-27T23:18:38.290Z,4.50
2022-11-27T23:21:06.688Z,4.50
2022-11-27T23:23:34.610Z,4.60
2022-11-27T23:26:04.839Z,4.60
2022-11-27T23:28:32.910Z,4.60
2022-11-27T23:31:28.475Z,4.60
2022-11-27T23:33:56.440Z,4.60
2022-11-27T23:36:24.564Z,4.50
2022-11-27T23:38:52.372Z,4.50
2022-11-27T23:41:21.662Z,4.50
2022-11-27T23:43:50.091Z,4.50
2022-11-27T23:46:21.999Z,4.50
2022-11-27T23:48:49.889Z,4.50
2022-11-27T23:51:19.969Z,4.50
2022-11-27T23:53:50.229Z,4.50
2022-11-27T23:56:20.190Z,4.50
2022-11-27T23:58:48.015Z,4.50
